Time;durP1;ratioP1;P1;durP2;ratioP2;P2;SDS_P1;SDS_P2;PMS_P1;PMS_P2;Temp;Humidity;BMP_temperature;BMP_pressure;BME280_temperature;BME280_humidity;BME280_pressure;Samples;Min_cycle;Max_cycle;Signal;HPM_P1;HPM_P2
2022/06/13 00:00:27;;;;;;;14.32;11.43;;;15.70;99.90;;;;;;5076721;28;20102;-58
2022/06/13 00:02:53;;;;;;;20.25;11.60;;;15.70;99.90;;;;;;5075300;28;20056;-58
2022/06/13 00:05:19;;;;;;;15.93;12.02;;;15.70;99.90;;;;;;5076688;28;20061;-58
2022/06/13 00:07:46;;;;;;;16.02;11.25;;;15.70;99.90;;;;;;5076847;28;20021;-58
2022/06/13 00:10:13;;;;;;;16.83;11.23;;;15.80;99.90;;;;;;5076746;28;20029;-58
2022/06/13 00:12:41;;;;;;;11.77;10.55;;;15.80;99.90;;;;;;5076531;28;20051;-58
2022/06/13 00:15:08;;;;;;;19.73;10.40;;;15.80;99.90;;;;;;5076650;28;20041;-58
2022/06/13 00:17:34;;;;;;;21.45;11.18;;;15.80;99.90;;;;;;5076492;28;20110;-58
2022/06/13 00:20:01;;;;;;;15.00;9.77;;;15.80;99.90;;;;;;5076743;28;20028;-58
2022/06/13 00:22:27;;;;;;;17.63;10.95;;;15.90;99.90;;;;;;5076435;28;20041;-59
2022/06/13 00:24:52;;;;;;;20.27;10.27;;;15.80;99.90;;;;;;5076505;28;20028;-58
2022/06/13 00:27:18;;;;;;;15.60;10.07;;;15.80;99.90;;;;;;5076322;28;20028;-58
2022/06/13 00:29:47;;;;;;;12.50;9.93;;;15.80;99.90;;;;;;5076527;28;20111;-58
2022/06/13 00:32:14;;;;;;;15.05;10.15;;;15.80;99.90;;;;;;5076168;28;20033;-58
2022/06/13 00:34:40;;;;;;;14.38;9.40;;;15.80;99.90;;;;;;5076319;28;20025;-58
2022/06/13 00:37:06;;;;;;;12.85;8.95;;;15.80;99.90;;;;;;5075338;28;20032;-58
2022/06/13 00:39:32;;;;;;;14.02;8.90;;;15.90;99.90;;;;;;5076050;28;20021;-58
2022/06/13 00:41:59;;;;;;;13.00;9.45;;;15.80;99.90;;;;;;5076107;28;20493;-58
2022/06/13 00:44:32;;;;;;;15.10;9.27;;;15.80;99.90;;;;;;5076055;28;20123;-58
2022/06/13 00:46:58;;;;;;;17.02;9.48;;;15.80;99.90;;;;;;5076119;28;20024;-58
2022/06/13 00:49:44;;;;;;;13.98;9.90;;;15.80;99.90;;;;;;5076022;28;20032;-58
2022/06/13 00:52:21;;;;;;;13.10;9.18;;;15.80;99.90;;;;;;5075710;28;20044;-58
2022/06/13 00:54:49;;;;;;;15.57;9.55;;;15.80;99.90;;;;;;5075980;28;20025;-58
2022/06/13 00:57:23;;;;;;;12.90;9.63;;;15.80;99.90;;;;;;5075907;28;20070;-58
2022/06/13 00:59:54;;;;;;;11.70;8.82;;;15.70;99.90;;;;;;5075788;28;20039;-58
2022/06/13 01:02:21;;;;;;;19.42;9.77;;;15.70;99.90;;;;;;5075526;28;20031;-58
2022/06/13 01:04:50;;;;;;;11.43;9.13;;;15.80;99.90;;;;;;5075758;28;20052;-58
2022/06/13 01:07:16;;;;;;;13.73;9.65;;;15.80;99.90;;;;;;5075732;28;20020;-58
2022/06/13 01:12:29;;;;;;;17.67;9.18;;;15.70;99.90;;;;;;5075887;28;20036;-58
2022/06/13 01:15:04;;;;;;;11.30;8.05;;;15.70;99.90;;;;;;5075409;28;20108;-58
2022/06/13 01:17:42;;;;;;;9.73;8.07;;;15.70;99.90;;;;;;5075460;28;20028;-58
2022/06/13 01:20:14;;;;;;;10.85;7.80;;;15.70;99.90;;;;;;5075180;28;20024;-58
2022/06/13 01:22:55;;;;;;;13.25;7.30;;;15.60;99.90;;;;;;5075140;28;20037;-58
2022/06/13 01:25:50;;;;;;;18.65;7.82;;;15.60;99.90;;;;;;5075216;28;20032;-58
2022/06/13 01:28:52;;;;;;;12.75;8.38;;;15.50;99.90;;;;;;5075048;28;20485;-58
2022/06/13 01:31:45;;;;;;;12.32;7.78;;;15.50;99.90;;;;;;5075103;28;20024;-58
2022/06/13 01:34:52;;;;;;;10.38;7.88;;;15.40;99.90;;;;;;5075151;28;20087;-58
2022/06/13 01:37:36;;;;;;;12.13;7.53;;;15.30;99.90;;;;;;5063347;28;20033;-58
2022/06/13 01:40:40;;;;;;;9.23;7.80;;;15.30;99.90;;;;;;5074823;28;20032;-58
2022/06/13 01:43:22;;;;;;;11.25;7.60;;;15.30;99.90;;;;;;5074464;28;20052;-58
2022/06/13 01:46:29;;;;;;;12.35;7.78;;;15.30;99.90;;;;;;5074887;28;20446;-58
2022/06/13 01:49:12;;;;;;;12.88;7.80;;;15.30;99.90;;;;;;5032279;28;20037;-58
2022/06/13 01:51:49;;;;;;;17.30;8.38;;;15.20;99.90;;;;;;5032211;28;20049;-58
2022/06/13 01:54:38;;;;;;;13.23;8.15;;;15.20;99.90;;;;;;5032588;28;20030;-58
2022/06/13 01:57:14;;;;;;;13.20;7.95;;;15.10;99.90;;;;;;5032348;28;20395;-58
2022/06/13 02:00:03;;;;;;;16.40;8.70;;;15.00;99.90;;;;;;5032284;28;20527;-58
2022/06/13 02:02:52;;;;;;;12.45;8.85;;;15.00;99.90;;;;;;5032248;28;20037;-58
2022/06/13 02:05:36;;;;;;;12.63;8.20;;;15.00;99.90;;;;;;5032400;28;20116;-58
2022/06/13 02:08:25;;;;;;;13.55;8.68;;;15.10;99.90;;;;;;5032172;28;20609;-58
2022/06/13 02:11:23;;;;;;;12.82;8.60;;;15.10;99.90;;;;;;5032166;28;20038;-58
2022/06/13 02:13:51;;;;;;;12.32;8.07;;;15.00;99.90;;;;;;5030223;28;20102;-58
2022/06/13 02:16:24;;;;;;;13.38;8.60;;;15.00;99.90;;;;;;5031995;28;20522;-58
2022/06/13 02:19:09;;;;;;;14.80;8.85;;;15.00;99.90;;;;;;5032036;28;20179;-58
2022/06/13 02:21:53;;;;;;;13.63;8.73;;;15.00;99.90;;;;;;5031998;28;20037;-58
2022/06/13 02:24:23;;;;;;;15.73;9.05;;;14.90;99.90;;;;;;5074279;28;20553;-58
2022/06/13 02:26:56;;;;;;;19.55;9.13;;;14.90;99.90;;;;;;5074247;28;20104;-58
2022/06/13 02:29:29;;;;;;;15.15;9.70;;;14.80;99.90;;;;;;5074425;28;20154;-58
2022/06/13 02:32:04;;;;;;;9.60;8.55;;;14.70;99.90;;;;;;5074430;28;20067;-58
2022/06/13 02:34:35;;;;;;;10.88;7.75;;;14.70;99.90;;;;;;5074417;28;20166;-58
2022/06/13 02:37:09;;;;;;;17.88;9.32;;;14.70;99.90;;;;;;5089905;28;20040;-58
2022/06/13 02:39:46;;;;;;;9.20;7.72;;;14.70;99.90;;;;;;5074206;28;20025;-58
2022/06/13 02:42:26;;;;;;;14.20;8.65;;;14.70;99.90;;;;;;5074388;28;20024;-58
2022/06/13 02:45:07;;;;;;;14.93;8.82;;;14.70;99.90;;;;;;5074188;28;20064;-58
2022/06/13 02:47:56;;;;;;;17.10;9.45;;;14.60;99.90;;;;;;5074100;28;20149;-58
2022/06/13 02:50:48;;;;;;;11.80;8.35;;;14.60;99.90;;;;;;5074125;28;20029;-58
2022/06/13 02:53:33;;;;;;;13.68;8.05;;;14.50;99.90;;;;;;5069283;28;20052;-58
2022/06/13 02:56:18;;;;;;;17.48;8.35;;;14.50;99.90;;;;;;5074036;28;20035;-58
2022/06/13 02:58:52;;;;;;;15.30;9.85;;;14.50;99.90;;;;;;5074259;28;20029;-58
2022/06/13 03:01:25;;;;;;;15.30;9.20;;;14.50;99.90;;;;;;5076639;28;20036;-58
2022/06/13 03:04:14;;;;;;;14.25;9.25;;;14.60;99.90;;;;;;5077898;28;20051;-58
2022/06/13 03:06:47;;;;;;;16.73;9.05;;;14.60;99.90;;;;;;5077981;28;20458;-58
2022/06/13 03:09:24;;;;;;;13.50;8.93;;;14.60;99.90;;;;;;5077876;28;20021;-58
2022/06/13 03:11:53;;;;;;;13.00;8.55;;;14.50;99.90;;;;;;5078051;28;20081;-58
2022/06/13 03:14:22;;;;;;;14.40;9.13;;;14.60;99.90;;;;;;5077645;28;20113;-58
2022/06/13 03:16:56;;;;;;;11.52;9.05;;;14.50;99.90;;;;;;5077614;28;20055;-58
2022/06/13 03:19:42;;;;;;;16.33;8.02;;;14.50;99.90;;;;;;5077653;28;20054;-58
2022/06/13 03:22:30;;;;;;;19.85;9.00;;;14.40;99.90;;;;;;5077803;28;20048;-58
2022/06/13 03:25:23;;;;;;;14.43;8.52;;;14.40;99.90;;;;;;5077566;28;20485;-58
2022/06/13 03:28:01;;;;;;;11.68;8.25;;;14.40;99.90;;;;;;5077404;28;20040;-58
2022/06/13 03:30:31;;;;;;;13.38;8.80;;;14.50;99.90;;;;;;5077476;28;20404;-59
2022/06/13 03:35:51;;;;;;;15.10;9.38;;;14.50;99.90;;;;;;5077380;28;20107;-58
2022/06/13 03:38:26;;;;;;;16.00;9.95;;;14.60;99.90;;;;;;5077221;28;20459;-58
2022/06/13 03:40:56;;;;;;;16.20;10.10;;;14.60;99.90;;;;;;5077245;28;20025;-58
2022/06/13 03:43:46;;;;;;;12.02;9.40;;;14.70;99.90;;;;;;5077098;28;20032;-58
2022/06/13 03:46:23;;;;;;;9.90;8.20;;;14.60;99.90;;;;;;5077179;28;20077;-58
2022/06/13 03:49:09;;;;;;;13.15;8.90;;;14.70;99.90;;;;;;5077198;28;20039;-58
2022/06/13 03:51:41;;;;;;;12.10;8.70;;;14.80;99.90;;;;;;5076897;28;20048;-58
2022/06/13 03:54:19;;;;;;;17.33;9.32;;;14.80;99.90;;;;;;5077099;28;20075;-58
2022/06/13 03:56:53;;;;;;;12.70;8.55;;;14.90;99.90;;;;;;5077052;28;20032;-58
2022/06/13 03:59:39;;;;;;;13.70;9.30;;;15.00;99.90;;;;;;5076856;28;20051;-58
2022/06/13 04:02:10;;;;;;;11.48;8.48;;;15.10;99.90;;;;;;5076956;28;20027;-58
2022/06/13 04:04:38;;;;;;;;;;;15.10;99.90;;;;;;5077043;28;20040;-58
2022/06/13 04:07:05;;;;;;;14.95;8.75;;;15.20;99.90;;;;;;5076793;28;19919;-58
2022/06/13 04:09:35;;;;;;;11.00;8.57;;;15.20;99.90;;;;;;5076646;28;20032;-58
2022/06/13 04:12:19;;;;;;;10.18;8.93;;;15.20;99.90;;;;;;5076701;28;20024;-58
2022/06/13 04:15:08;;;;;;;9.73;8.73;;;15.30;99.90;;;;;;5076540;28;20572;-58
2022/06/13 04:17:53;;;;;;;11.73;8.38;;;15.40;99.90;;;;;;5055243;28;20063;-58
2022/06/13 04:20:44;;;;;;;14.35;10.13;;;15.30;99.90;;;;;;5076480;28;20688;-58
2022/06/13 04:23:14;;;;;;;;;;;15.40;99.90;;;;;;5077029;28;20032;-58
2022/06/13 04:25:57;;;;;;;19.83;10.18;;;15.50;99.90;;;;;;5076344;28;20482;-58
2022/06/13 04:28:41;;;;;;;14.93;10.13;;;15.60;99.90;;;;;;5076193;28;20032;-58
2022/06/13 04:31:10;;;;;;;17.33;9.73;;;15.70;99.90;;;;;;5076439;28;20085;-58
2022/06/13 04:33:47;;;;;;;19.00;9.90;;;15.70;99.90;;;;;;5076152;28;20037;-58
2022/06/13 04:36:15;;;;;;;15.85;9.90;;;15.80;99.90;;;;;;5076290;28;20028;-58
2022/06/13 04:38:45;;;;;;;22.98;13.20;;;15.90;99.90;;;;;;5076225;28;20021;-58
2022/06/13 04:41:13;;;;;;;18.77;11.02;;;16.00;99.90;;;;;;5076116;28;20056;-58
2022/06/13 04:43:45;;;;;;;16.92;11.43;;;16.00;99.90;;;;;;5076068;28;20028;-58
2022/06/13 04:46:16;;;;;;;19.58;11.70;;;16.10;99.90;;;;;;5076108;28;20039;-58
2022/06/13 04:48:45;;;;;;;14.38;8.82;;;16.30;99.90;;;;;;5076045;28;20032;-58
2022/06/13 04:51:16;;;;;;;16.40;9.30;;;16.40;99.90;;;;;;5072215;28;20217;-58
2022/06/13 04:53:57;;;;;;;20.33;9.80;;;16.40;99.90;;;;;;5075898;28;20056;-58
2022/06/13 04:56:23;;;;;;;21.95;10.80;;;16.60;99.90;;;;;;5075842;28;20040;-58
2022/06/13 04:58:52;;;;;;;16.13;10.38;;;16.60;99.90;;;;;;5075696;28;20405;-58
2022/06/13 05:01:35;;;;;;;14.35;9.85;;;16.70;99.90;;;;;;5075819;28;20036;-58
2022/06/13 05:04:05;;;;;;;23.63;11.20;;;16.80;99.90;;;;;;5075583;28;20028;-58
2022/06/13 05:06:42;;;;;;;18.25;10.68;;;16.90;99.90;;;;;;5075727;28;20016;-58
2022/06/13 05:09:08;;;;;;;19.15;10.90;;;17.10;99.90;;;;;;5075847;28;20028;-58
2022/06/13 05:11:56;;;;;;;30.08;14.50;;;17.20;99.90;;;;;;5075233;28;20025;-58
2022/06/13 05:14:42;;;;;;;26.80;16.38;;;17.30;99.90;;;;;;5073270;28;20024;-59
2022/06/13 05:17:08;;;;;;;31.17;18.38;;;17.30;99.90;;;;;;5065149;28;20041;-59
2022/06/13 05:19:40;;;;;;;30.73;15.00;;;17.40;99.90;;;;;;5073902;28;20437;-59
2022/06/13 05:22:09;;;;;;;33.40;18.40;;;17.60;99.90;;;;;;5072091;28;20032;-59
2022/06/13 05:24:57;;;;;;;28.02;15.68;;;17.70;99.90;;;;;;5075207;28;20477;-59
2022/06/13 05:27:23;;;;;;;31.55;15.93;;;17.80;99.90;;;;;;5075080;28;20028;-59
2022/06/13 05:29:49;;;;;;;22.92;14.40;;;17.90;99.90;;;;;;5070751;28;20043;-59
2022/06/13 05:32:17;;;;;;;25.20;15.40;;;17.90;99.90;;;;;;5073336;28;20086;-59
2022/06/13 05:34:45;;;;;;;24.05;14.52;;;18.00;99.90;;;;;;5073893;28;20039;-59
2022/06/13 05:37:13;;;;;;;27.00;14.15;;;18.10;99.90;;;;;;5071093;28;20032;-59
2022/06/13 05:39:39;;;;;;;27.73;15.43;;;18.20;99.90;;;;;;5071588;28;20482;-59
2022/06/13 05:42:09;;;;;;;22.23;14.80;;;18.30;99.90;;;;;;5074169;28;20165;-59
2022/06/13 05:44:35;;;;;;;27.70;15.65;;;18.30;99.90;;;;;;5073767;28;20028;-59
2022/06/13 05:47:01;;;;;;;31.60;16.98;;;18.50;99.90;;;;;;5073718;28;20467;-59
2022/06/13 05:49:27;;;;;;;26.15;16.95;;;18.60;99.90;;;;;;5074269;28;20034;-59
2022/06/13 05:51:53;;;;;;;29.42;18.20;;;18.70;99.90;;;;;;5073586;28;20046;-59
2022/06/13 05:54:21;;;;;;;31.58;19.17;;;18.80;99.90;;;;;;5073899;28;20028;-59
2022/06/13 05:56:47;;;;;;;46.30;23.17;;;18.90;99.90;;;;;;5074145;28;20328;-59
2022/06/13 05:59:13;;;;;;;45.65;24.02;;;19.10;99.90;;;;;;5073873;28;20660;-59
2022/06/13 06:01:39;;;;;;;59.30;26.92;;;19.20;99.90;;;;;;5073957;28;20024;-59
2022/06/13 06:04:05;;;;;;;42.88;24.27;;;19.30;99.90;;;;;;5073711;28;20042;-59
2022/06/13 06:06:34;;;;;;;47.30;23.65;;;19.40;99.90;;;;;;5073940;28;20040;-59
2022/06/13 06:09:01;;;;;;;45.17;23.95;;;19.50;99.90;;;;;;5071567;28;20019;-59
2022/06/13 06:11:29;;;;;;;42.90;23.25;;;19.60;99.90;;;;;;5073798;28;20021;-59
2022/06/13 06:13:56;;;;;;;43.35;22.63;;;19.70;99.90;;;;;;5073650;28;20024;-59
2022/06/13 06:16:24;;;;;;;44.00;24.02;;;19.90;99.90;;;;;;5073755;28;20100;-59
2022/06/13 06:18:51;;;;;;;41.90;22.95;;;20.10;99.90;;;;;;5073949;28;20040;-59
2022/06/13 06:21:17;;;;;;;44.47;24.20;;;20.20;99.90;;;;;;5070601;28;20024;-59
2022/06/13 06:23:42;;;;;;;39.40;23.23;;;20.20;99.90;;;;;;5074008;28;20029;-59
2022/06/13 06:26:11;;;;;;;41.80;24.92;;;20.40;99.90;;;;;;5074638;28;20482;-59
2022/06/13 06:28:38;;;;;;;36.45;23.40;;;20.50;99.90;;;;;;5074956;28;20530;-59
2022/06/13 06:31:04;;;;;;;42.05;21.67;;;20.60;99.90;;;;;;5074709;28;20031;-59
2022/06/13 06:33:32;;;;;;;44.72;21.98;;;20.80;99.90;;;;;;5074137;28;20033;-59
2022/06/13 06:35:58;;;;;;;39.40;18.70;;;20.90;99.90;;;;;;5077889;28;20416;-59
2022/06/13 06:38:26;;;;;;;32.88;16.25;;;21.10;99.90;;;;;;5077813;28;20028;-59
2022/06/13 06:40:53;;;;;;;39.22;17.02;;;21.20;99.90;;;;;;5075484;28;20052;-59
2022/06/13 06:43:19;;;;;;;23.05;13.63;;;21.40;99.90;;;;;;5076619;28;20032;-59
2022/06/13 06:45:45;;;;;;;28.80;15.07;;;21.60;99.90;;;;;;5076124;28;20027;-59
2022/06/13 06:48:17;;;;;;;25.95;13.95;;;21.70;99.90;;;;;;5078086;28;20493;-59
2022/06/13 06:50:45;;;;;;;28.38;13.50;;;21.90;99.90;;;;;;5078115;28;20364;-59
2022/06/13 06:53:13;;;;;;;20.00;10.70;;;22.10;99.90;;;;;;5077947;28;20044;-59
2022/06/13 07:01:11;;;;;;;17.70;9.02;;;22.70;95.10;;;;;;5077634;28;20039;-59
2022/06/13 07:03:38;;;;;;;20.30;9.95;;;23.10;99.90;;;;;;5077391;28;20058;-59
2022/06/13 07:06:07;;;;;;;22.52;9.60;;;23.40;97.00;;;;;;5077085;28;20355;-59
2022/06/13 07:08:34;;;;;;;20.85;10.35;;;23.60;93.00;;;;;;5077230;28;20032;-59
2022/06/13 07:13:48;;;;;;;21.70;9.18;;;23.90;83.30;;;;;;5078039;28;20036;-59
2022/06/13 07:16:14;;;;;;;24.33;10.70;;;23.90;81.70;;;;;;5078252;28;20028;-59
2022/06/13 07:18:41;;;;;;;20.35;10.57;;;24.20;91.30;;;;;;5076676;28;20044;-59
2022/06/13 07:21:08;;;;;;;24.92;11.77;;;24.70;88.60;;;;;;5078109;28;20036;-59
2022/06/13 07:23:35;;;;;;;27.58;12.20;;;24.40;77.20;;;;;;5078251;28;20028;-60
2022/06/13 07:26:01;;;;;;;17.02;10.13;;;24.70;92.40;;;;;;5077571;28;20032;-59
2022/06/13 07:28:27;;;;;;;18.73;9.65;;;25.10;81.00;;;;;;5075420;28;20027;-60
2022/06/13 07:30:53;;;;;;;26.23;12.35;;;25.50;84.30;;;;;;5075156;28;20029;-60
2022/06/13 07:33:19;;;;;;;26.85;8.43;;;25.90;72.30;;;;;;5074043;28;20598;-60
2022/06/13 07:35:45;;;;;;;10.60;5.00;;;26.00;70.20;;;;;;5071985;28;20035;-59
2022/06/13 07:38:17;;;;;;;8.27;4.00;;;26.20;64.20;;;;;;5056738;28;20413;-60
2022/06/13 07:40:46;;;;;;;8.00;4.35;;;26.40;60.90;;;;;;5071105;28;20036;-60
2022/06/13 07:43:33;;;;;;;11.38;4.97;;;26.60;62.30;;;;;;5072732;28;20052;-60
2022/06/13 07:46:03;;;;;;;9.90;5.00;;;27.00;64.20;;;;;;5076223;28;20020;-60
2022/06/13 07:48:31;;;;;;;9.02;5.35;;;27.30;58.20;;;;;;5076551;28;20025;-59
2022/06/13 07:50:57;;;;;;;15.65;6.82;;;27.30;59.00;;;;;;5076272;28;20489;-60
2022/06/13 07:53:24;;;;;;;14.52;6.20;;;27.50;58.60;;;;;;5076066;28;20036;-60
2022/06/13 07:55:50;;;;;;;12.85;6.18;;;27.60;60.00;;;;;;5076737;28;20058;-60
2022/06/13 07:58:25;;;;;;;12.18;5.93;;;27.50;58.80;;;;;;5076984;28;20090;-60
2022/06/13 08:00:56;;;;;;;11.50;5.47;;;27.30;60.80;;;;;;5076850;28;20032;-60
2022/06/13 08:03:26;;;;;;;16.02;6.18;;;27.70;58.00;;;;;;5086641;28;20075;-60
2022/06/13 08:05:52;;;;;;;17.58;9.18;;;27.80;59.10;;;;;;5076083;28;20451;-60
2022/06/13 08:08:18;;;;;;;16.55;7.90;;;28.10;59.30;;;;;;5075486;28;20031;-60
2022/06/13 08:10:46;;;;;;;18.60;7.38;;;27.70;58.40;;;;;;5074497;28;20024;-60
2022/06/13 08:13:14;;;;;;;14.98;7.18;;;27.90;62.70;;;;;;5073154;28;20107;-60
2022/06/13 08:15:41;;;;;;;12.80;7.45;;;28.40;60.10;;;;;;5076097;28;20031;-61
2022/06/13 08:18:08;;;;;;;18.02;9.02;;;28.70;60.30;;;;;;5076475;28;20029;-60
2022/06/13 08:20:34;;;;;;;16.73;8.05;;;29.00;57.60;;;;;;5076633;28;20027;-61
2022/06/13 08:23:02;;;;;;;11.57;7.45;;;29.10;56.60;;;;;;5092328;28;20028;-61
2022/06/13 08:25:33;;;;;;;11.75;6.88;;;29.10;55.60;;;;;;5077478;28;20025;-62
2022/06/13 08:28:00;;;;;;;16.73;8.20;;;29.20;55.30;;;;;;5076041;28;20025;-60
2022/06/13 08:30:42;;;;;;;17.42;7.68;;;29.40;55.00;;;;;;5075015;28;20016;-61
2022/06/13 08:33:08;;;;;;;18.77;9.07;;;29.50;53.20;;;;;;5076141;28;20025;-61
2022/06/13 08:35:34;;;;;;;20.60;10.05;;;29.60;52.70;;;;;;5076296;28;20557;-61
2022/06/13 08:38:03;;;;;;;24.95;10.05;;;29.60;52.20;;;;;;5069391;28;20035;-59
2022/06/13 08:40:49;;;;;;;23.58;9.98;;;29.60;54.50;;;;;;5074774;28;20035;-60
2022/06/13 08:43:44;;;;;;;26.38;11.95;;;30.00;51.80;;;;;;5070359;28;20389;-60
2022/06/13 08:46:25;;;;;;;27.38;14.48;;;30.10;52.10;;;;;;5075200;28;20037;-61
2022/06/13 08:49:09;;;;;;;23.60;12.43;;;29.50;52.60;;;;;;5074940;28;20023;-61
2022/06/13 08:51:45;;;;;;;25.00;11.85;;;30.10;50.80;;;;;;5074843;28;20071;-62
2022/06/13 08:54:17;;;;;;;22.92;11.32;;;30.40;50.40;;;;;;5071625;28;20069;-62
2022/06/13 08:56:44;;;;;;;20.05;11.32;;;30.90;50.50;;;;;;5074640;28;20025;-62
2022/06/13 08:59:22;;;;;;;31.92;13.55;;;31.00;46.30;;;;;;5075348;28;20095;-62
2022/06/13 09:01:57;;;;;;;29.80;14.48;;;31.00;45.60;;;;;;5074125;28;20382;-62
2022/06/13 09:04:54;;;;;;;32.85;15.10;;;30.80;47.40;;;;;;5071671;28;20112;-62
2022/06/13 09:07:32;;;;;;;26.58;11.18;;;30.90;47.80;;;;;;5072821;28;20038;-59
2022/06/13 09:10:11;;;;;;;13.75;7.45;;;30.90;44.60;;;;;;5073552;28;20027;-59
2022/06/13 09:13:03;;;;;;;15.75;7.85;;;31.30;46.60;;;;;;5074737;28;20033;-59
2022/06/13 09:15:48;;;;;;;11.80;6.50;;;31.40;49.00;;;;;;5075130;28;20074;-59
2022/06/13 09:18:45;;;;;;;10.93;6.28;;;31.50;47.90;;;;;;5070730;28;20024;-59
2022/06/13 09:21:37;;;;;;;11.68;6.07;;;31.60;47.90;;;;;;5072727;28;20105;-59
2022/06/13 09:24:35;;;;;;;16.98;5.70;;;31.30;47.80;;;;;;5074350;28;20032;-61
2022/06/13 09:27:14;;;;;;;14.65;7.10;;;31.50;46.30;;;;;;5074029;28;20493;-59
2022/06/13 09:29:54;;;;;;;10.63;5.63;;;31.60;46.80;;;;;;5072628;28;20029;-60
2022/06/13 09:32:23;;;;;;;9.50;5.10;;;31.60;45.40;;;;;;5072997;28;20085;-59
2022/06/13 09:34:59;;;;;;;8.30;5.07;;;31.70;45.60;;;;;;5073565;28;20257;-59
2022/06/13 09:37:28;;;;;;;11.98;4.57;;;31.90;44.30;;;;;;5073734;28;20040;-60
2022/06/13 09:39:54;;;;;;;8.40;4.75;;;32.10;44.80;;;;;;5071030;28;20032;-60
2022/06/13 09:42:38;;;;;;;8.90;5.15;;;32.10;43.50;;;;;;5072839;28;20522;-60
2022/06/13 09:45:31;;;;;;;13.38;5.30;;;31.80;44.20;;;;;;5085553;28;20028;-60
2022/06/13 09:48:12;;;;;;;10.98;4.75;;;32.10;45.60;;;;;;5078806;28;20478;-60
2022/06/13 09:51:13;;;;;;;7.13;4.00;;;32.20;42.90;;;;;;5073412;28;20039;-61
2022/06/13 09:53:52;;;;;;;10.80;4.07;;;32.30;41.10;;;;;;5072154;28;20031;-61
2022/06/13 09:56:36;;;;;;;9.98;4.50;;;32.20;42.70;;;;;;5072886;28;20024;-61
2022/06/13 09:59:17;;;;;;;10.75;3.83;;;32.60;44.40;;;;;;5072467;28;20104;-61
2022/06/13 10:01:47;;;;;;;8.98;3.45;;;32.90;43.70;;;;;;5073966;28;20037;-61
2022/06/13 10:04:27;;;;;;;6.88;3.33;;;33.10;41.90;;;;;;5073878;28;20035;-60
2022/06/13 10:07:19;;;;;;;9.15;3.22;;;32.60;40.80;;;;;;5073307;28;20021;-61
2022/06/13 10:10:10;;;;;;;9.80;3.25;;;32.40;42.20;;;;;;5073489;28;20055;-61
2022/06/13 10:13:02;;;;;;;8.88;2.50;;;32.50;44.00;;;;;;5054480;28;20035;-60
2022/06/13 10:15:47;;;;;;;7.82;3.72;;;32.50;44.40;;;;;;5074136;28;20025;-60
2022/06/13 10:18:41;;;;;;;4.95;2.90;;;32.80;42.00;;;;;;5073815;28;20052;-61
2022/06/13 10:21:36;;;;;;;5.30;3.22;;;32.90;44.40;;;;;;5071928;28;20462;-61
2022/06/13 10:24:11;;;;;;;5.50;3.45;;;33.10;41.90;;;;;;5071323;28;20032;-61
2022/06/13 10:27:12;;;;;;;9.90;3.72;;;33.10;41.50;;;;;;5072925;28;20024;-61
2022/06/13 10:30:07;;;;;;;4.65;3.03;;;33.00;40.30;;;;;;5065947;28;20555;-61
2022/06/13 10:32:52;;;;;;;10.55;2.75;;;33.20;42.10;;;;;;5071760;28;20579;-60
2022/06/13 10:35:28;;;;;;;4.32;2.75;;;32.90;39.70;;;;;;5063595;28;20029;-61
2022/06/13 10:38:04;;;;;;;14.02;5.15;;;32.80;39.40;;;;;;5071357;28;20029;-60
2022/06/13 10:40:32;;;;;;;9.30;3.00;;;32.90;39.20;;;;;;5073303;28;20108;-61
2022/06/13 10:42:59;;;;;;;4.20;2.80;;;32.90;41.30;;;;;;5073515;28;20021;-61
2022/06/13 10:45:26;;;;;;;11.38;4.50;;;33.00;42.20;;;;;;5071643;28;20130;-62
2022/06/13 10:48:05;;;;;;;7.10;3.72;;;32.80;42.10;;;;;;5072628;28;20028;-62
2022/06/13 10:50:45;;;;;;;11.73;4.00;;;33.10;41.20;;;;;;5073572;28;20037;-60
2022/06/13 10:53:21;;;;;;;3.17;2.80;;;33.40;42.00;;;;;;5071017;28;20059;-61
2022/06/13 10:55:48;;;;;;;5.50;2.97;;;33.10;39.60;;;;;;5072864;28;20100;-61
2022/06/13 10:58:30;;;;;;;3.42;2.70;;;33.40;43.70;;;;;;5073108;28;20028;-62
2022/06/13 11:01:15;;;;;;;5.00;2.90;;;33.20;39.30;;;;;;5070511;28;20068;-61
2022/06/13 11:04:03;;;;;;;8.57;3.67;;;33.50;39.30;;;;;;5073148;28;20097;-61
2022/06/13 11:06:39;;;;;;;6.85;3.40;;;33.50;39.60;;;;;;5073205;28;20534;-61
2022/06/13 11:09:19;;;;;;;7.38;3.40;;;33.50;39.70;;;;;;5071892;28;20021;-61
2022/06/13 11:11:46;;;;;;;12.45;3.70;;;33.70;38.60;;;;;;5072359;28;20454;-62
2022/06/13 11:14:34;;;;;;;5.28;2.70;;;33.10;42.30;;;;;;5072520;28;20064;-62
2022/06/13 11:22:39;;;;;;;3.33;2.33;;;33.10;39.60;;;;;;5077378;28;20028;-61
2022/06/13 11:25:17;;;;;;;5.50;2.58;;;32.90;40.10;;;;;;5077334;28;20229;-61
2022/06/13 11:27:47;;;;;;;7.15;3.10;;;33.30;40.80;;;;;;5075716;28;20367;-61
2022/06/13 11:30:31;;;;;;;6.38;3.15;;;33.40;38.80;;;;;;5076110;28;20048;-62
2022/06/13 11:33:12;;;;;;;3.08;2.28;;;33.70;42.30;;;;;;5075045;28;20119;-62
2022/06/13 11:35:58;;;;;;;4.53;2.50;;;33.50;38.80;;;;;;5068221;28;20397;-62
2022/06/13 11:38:34;;;;;;;7.68;3.63;;;33.80;38.40;;;;;;5069928;28;20028;-62
2022/06/13 11:41:11;;;;;;;6.35;2.88;;;33.70;37.80;;;;;;5074625;28;20029;-62
2022/06/13 11:43:57;;;;;;;4.72;2.53;;;34.00;39.40;;;;;;5075911;28;20025;-62
2022/06/13 11:46:24;;;;;;;6.57;2.30;;;33.90;37.40;;;;;;5062039;28;20040;-62
2022/06/13 11:48:50;;;;;;;4.65;3.03;;;34.00;39.00;;;;;;5071126;28;20052;-62
2022/06/13 11:51:26;;;;;;;3.17;2.33;;;33.80;39.60;;;;;;5074727;28;20386;-61
2022/06/13 11:53:57;;;;;;;5.32;2.67;;;33.90;35.00;;;;;;5075405;28;20196;-61
2022/06/13 11:56:31;;;;;;;26.73;3.72;;;33.80;36.20;;;;;;5075047;28;20067;-61
2022/06/13 11:59:01;;;;;;;5.60;2.92;;;33.90;39.40;;;;;;5076163;28;20027;-60
2022/06/13 12:01:35;;;;;;;;;;;34.00;38.20;;;;;;5068509;28;20062;-61
2022/06/13 12:04:13;;;;;;;3.67;2.65;;;33.50;36.50;;;;;;5074449;28;19916;-61
2022/06/13 12:06:47;;;;;;;4.72;2.75;;;33.60;35.90;;;;;;5074118;28;20028;-61
2022/06/13 12:09:15;;;;;;;3.55;2.33;;;33.50;36.10;;;;;;5075997;28;20099;-61
2022/06/13 12:11:52;;;;;;;6.55;2.55;;;33.40;36.10;;;;;;5074790;28;20073;-65
2022/06/13 12:14:19;;;;;;;5.05;2.83;;;33.60;35.10;;;;;;5072209;28;20109;-60
2022/06/13 12:16:47;;;;;;;3.22;2.35;;;34.00;38.20;;;;;;5074936;28;20071;-60
2022/06/13 12:19:28;;;;;;;5.80;2.40;;;33.90;34.30;;;;;;5073298;28;20035;-60
2022/06/13 12:22:11;;;;;;;5.50;3.00;;;33.10;32.20;;;;;;5074470;28;20109;-61
2022/06/13 12:25:06;;;;;;;3.20;2.47;;;33.00;36.20;;;;;;5076295;28;20044;-61
2022/06/13 12:27:41;;;;;;;4.22;3.15;;;33.60;36.00;;;;;;5059389;28;20074;-61
2022/06/13 12:30:37;;;;;;;12.30;3.40;;;33.90;36.70;;;;;;5077022;28;20037;-60
2022/06/13 12:33:38;;;;;;;6.18;3.30;;;33.90;36.90;;;;;;5074303;28;20089;-61
2022/06/13 12:36:28;;;;;;;5.10;2.30;;;34.10;40.20;;;;;;5074489;28;20363;-61
2022/06/13 12:39:09;;;;;;;6.97;3.42;;;34.10;35.40;;;;;;5075386;28;20032;-60
2022/06/13 12:42:43;;;;;;;9.40;4.20;;;34.10;33.20;;;;;;5068470;28;20020;-62
2022/06/13 12:45:33;;;;;;;5.38;2.88;;;34.00;34.50;;;;;;4996344;28;20041;-60
2022/06/13 12:49:09;;;;;;;9.30;3.17;;;34.00;35.70;;;;;;5013505;28;20050;-61
2022/06/13 12:51:58;;;;;;;5.93;2.65;;;33.80;35.30;;;;;;4949893;28;20046;-61
2022/06/13 12:54:52;;;;;;;7.88;3.13;;;34.00;35.10;;;;;;4972274;28;20477;-60
2022/06/13 12:57:53;;;;;;;11.68;10.48;;;33.80;34.50;;;;;;4974241;28;20897;-60
2022/06/13 13:00:40;;;;;;;6.53;3.45;;;33.10;33.80;;;;;;4970598;28;20136;-60
2022/06/13 13:03:31;;;;;;;5.80;2.90;;;32.70;39.80;;;;;;4972814;28;20050;-60
2022/06/13 13:06:36;;;;;;;9.00;3.42;;;32.90;36.60;;;;;;4958085;28;20035;-60
2022/06/13 13:09:38;;;;;;;8.80;3.13;;;31.80;35.90;;;;;;4973614;28;20047;-60
2022/06/13 13:12:16;;;;;;;6.32;3.00;;;32.20;35.80;;;;;;4973182;28;20383;-61
2022/06/13 13:15:16;;;;;;;4.75;2.85;;;32.50;36.70;;;;;;4973133;28;20043;-60
2022/06/13 13:17:43;;;;;;;5.28;2.85;;;32.70;35.80;;;;;;4971853;28;20417;-61
2022/06/13 13:20:23;;;;;;;4.63;2.85;;;32.70;37.80;;;;;;5025283;28;20051;-60
2022/06/13 13:23:29;;;;;;;4.82;3.28;;;32.80;34.90;;;;;;5064738;28;20485;-60
2022/06/13 13:26:10;;;;;;;9.27;3.47;;;32.90;33.30;;;;;;5074237;28;20029;-60
2022/06/13 13:29:00;;;;;;;10.13;3.53;;;32.40;32.90;;;;;;5074743;28;20047;-60
2022/06/13 13:31:43;;;;;;;;;;;32.40;34.50;;;;;;5074386;28;20024;-60
2022/06/13 13:34:24;;;;;;;8.77;3.85;;;32.30;31.50;;;;;;5071287;28;19912;-60
2022/06/13 13:37:05;;;;;;;5.65;2.65;;;32.10;35.40;;;;;;5072294;28;20040;-60
2022/06/13 13:39:46;;;;;;;4.57;3.05;;;32.30;36.60;;;;;;5075018;28;20029;-60
2022/06/13 13:42:29;;;;;;;6.10;2.80;;;32.50;34.50;;;;;;5074821;28;20047;-60
2022/06/13 13:45:13;;;;;;;2.70;2.45;;;32.50;37.20;;;;;;5074562;28;20028;-60